sensor_id;sensor_type;location;lat;lon;timestamp;P1;durP1;ratioP1;P2;durP2;ratioP2
1404;SDS011;697;51.114;6.542;2024-01-30T00:00:50;14.03;;;10.00;;
1404;SDS011;697;51.114;6.542;2024-01-30T00:03:18;12.63;;;10.50;;
1404;SDS011;697;51.114;6.542;2024-01-30T00:05:45;13.03;;;9.80;;
1404;SDS011;697;51.114;6.542;2024-01-30T00:08:11;13.27;;;10.33;;
1404;SDS011;697;51.114;6.542;2024-01-30T00:10:38;10.63;;;9.40;;
1404;SDS011;697;51.114;6.542;2024-01-30T00:13:05;10.57;;;9.27;;
1404;SDS011;697;51.114;6.542;2024-01-30T00:15:32;10.90;;;9.80;;
1404;SDS011;697;51.114;6.542;2024-01-30T00:18:00;11.63;;;9.30;;
1404;SDS011;697;51.114;6.542;2024-01-30T00:20:28;11.90;;;9.73;;
1404;SDS011;697;51.114;6.542;2024-01-30T00:22:55;12.53;;;10.43;;
1404;SDS011;697;51.114;6.542;2024-01-30T00:25:21;10.70;;;9.40;;
1404;SDS011;697;51.114;6.542;2024-01-30T00:27:48;15.27;;;9.90;;
1404;SDS011;697;51.114;6.542;2024-01-30T00:30:15;15.63;;;10.83;;
1404;SDS011;697;51.114;6.542;2024-01-30T00:32:42;11.80;;;9.80;;
1404;SDS011;697;51.114;6.542;2024-01-30T00:35:08;11.17;;;9.10;;
1404;SDS011;697;51.114;6.542;2024-01-30T00:37:37;13.73;;;10.33;;
1404;SDS011;697;51.114;6.542;2024-01-30T00:40:04;13.83;;;11.10;;
1404;SDS011;697;51.114;6.542;2024-01-30T00:42:31;13.00;;;9.60;;
1404;SDS011;697;51.114;6.542;2024-01-30T00:44:58;12.20;;;10.10;;
1404;SDS011;697;51.114;6.542;2024-01-30T00:47:25;12.53;;;9.60;;
1404;SDS011;697;51.114;6.542;2024-01-30T00:49:51;12.33;;;10.13;;
1404;SDS011;697;51.114;6.542;2024-01-30T00:52:18;11.30;;;9.43;;
1404;SDS011;697;51.114;6.542;2024-01-30T00:54:46;12.90;;;9.77;;
1404;SDS011;697;51.114;6.542;2024-01-30T00:57:13;14.73;;;9.83;;
1404;SDS011;697;51.114;6.542;2024-01-30T00:59:39;15.97;;;10.03;;
1404;SDS011;697;51.114;6.542;2024-01-30T01:02:06;10.27;;;8.90;;
1404;SDS011;697;51.114;6.542;2024-01-30T01:04:33;14.30;;;10.40;;
1404;SDS011;697;51.114;6.542;2024-01-30T01:06:59;12.90;;;10.23;;
1404;SDS011;697;51.114;6.542;2024-01-30T01:09:26;16.20;;;10.57;;
1404;SDS011;697;51.114;6.542;2024-01-30T01:11:54;13.70;;;11.23;;
1404;SDS011;697;51.114;6.542;2024-01-30T01:14:21;14.13;;;10.43;;
1404;SDS011;697;51.114;6.542;2024-01-30T01:16:48;13.80;;;11.07;;
1404;SDS011;697;51.114;6.542;2024-01-30T01:19:14;16.83;;;11.20;;
1404;SDS011;697;51.114;6.542;2024-01-30T01:21:41;16.30;;;10.77;;
1404;SDS011;697;51.114;6.542;2024-01-30T01:24:08;13.80;;;12.00;;
1404;SDS011;697;51.114;6.542;2024-01-30T01:26:35;18.17;;;12.43;;
1404;SDS011;697;51.114;6.542;2024-01-30T01:29:03;13.60;;;12.20;;
1404;SDS011;697;51.114;6.542;2024-01-30T01:31:34;15.60;;;11.93;;
1404;SDS011;697;51.114;6.542;2024-01-30T01:34:04;14.50;;;11.87;;
1404;SDS011;697;51.114;6.542;2024-01-30T01:36:31;15.80;;;11.60;;
1404;SDS011;697;51.114;6.542;2024-01-30T01:38:58;13.77;;;12.30;;
1404;SDS011;697;51.114;6.542;2024-01-30T01:41:24;16.43;;;12.70;;
1404;SDS011;697;51.114;6.542;2024-01-30T01:43:55;16.80;;;12.90;;
1404;SDS011;697;51.114;6.542;2024-01-30T01:46:23;15.97;;;13.33;;
1404;SDS011;697;51.114;6.542;2024-01-30T01:48:52;16.30;;;12.50;;
1404;SDS011;697;51.114;6.542;2024-01-30T01:51:19;21.50;;;12.00;;
1404;SDS011;697;51.114;6.542;2024-01-30T01:53:46;16.00;;;12.37;;
1404;SDS011;697;51.114;6.542;2024-01-30T01:56:13;19.13;;;13.43;;
1404;SDS011;697;51.114;6.542;2024-01-30T01:58:41;18.20;;;13.93;;
1404;SDS011;697;51.114;6.542;2024-01-30T02:01:08;21.87;;;12.27;;
1404;SDS011;697;51.114;6.542;2024-01-30T02:03:36;22.37;;;14.57;;
1404;SDS011;697;51.114;6.542;2024-01-30T02:06:04;16.90;;;11.90;;
1404;SDS011;697;51.114;6.542;2024-01-30T02:08:30;17.43;;;12.63;;
1404;SDS011;697;51.114;6.542;2024-01-30T02:10:58;16.20;;;12.23;;
1404;SDS011;697;51.114;6.542;2024-01-30T02:13:25;15.80;;;13.23;;
1404;SDS011;697;51.114;6.542;2024-01-30T02:15:52;20.70;;;13.20;;
1404;SDS011;697;51.114;6.542;2024-01-30T02:18:19;13.97;;;11.70;;
1404;SDS011;697;51.114;6.542;2024-01-30T02:20:47;20.30;;;13.53;;
1404;SDS011;697;51.114;6.542;2024-01-30T02:23:16;18.27;;;14.00;;
1404;SDS011;697;51.114;6.542;2024-01-30T02:25:43;18.00;;;12.80;;
1404;SDS011;697;51.114;6.542;2024-01-30T02:28:10;18.57;;;14.77;;
1404;SDS011;697;51.114;6.542;2024-01-30T02:30:37;18.47;;;14.77;;
1404;SDS011;697;51.114;6.542;2024-01-30T02:33:04;19.30;;;14.20;;
1404;SDS011;697;51.114;6.542;2024-01-30T02:35:31;18.57;;;15.03;;
1404;SDS011;697;51.114;6.542;2024-01-30T02:37:58;17.03;;;14.50;;
1404;SDS011;697;51.114;6.542;2024-01-30T02:40:26;21.73;;;15.30;;
1404;SDS011;697;51.114;6.542;2024-01-30T02:42:53;17.50;;;13.83;;
1404;SDS011;697;51.114;6.542;2024-01-30T02:45:19;18.60;;;14.50;;
1404;SDS011;697;51.114;6.542;2024-01-30T02:47:46;19.17;;;13.47;;
1404;SDS011;697;51.114;6.542;2024-01-30T02:50:13;17.13;;;14.90;;
1404;SDS011;697;51.114;6.542;2024-01-30T02:52:40;16.83;;;13.30;;
1404;SDS011;697;51.114;6.542;2024-01-30T02:55:08;15.43;;;12.33;;
1404;SDS011;697;51.114;6.542;2024-01-30T02:57:37;15.73;;;13.73;;
1404;SDS011;697;51.114;6.542;2024-01-30T03:00:04;17.50;;;13.60;;
1404;SDS011;697;51.114;6.542;2024-01-30T03:02:34;16.07;;;13.83;;
1404;SDS011;697;51.114;6.542;2024-01-30T03:05:00;15.70;;;13.50;;
1404;SDS011;697;51.114;6.542;2024-01-30T03:07:28;19.60;;;13.27;;
1404;SDS011;697;51.114;6.542;2024-01-30T03:09:55;15.63;;;13.17;;
1404;SDS011;697;51.114;6.542;2024-01-30T03:12:22;18.57;;;13.80;;
1404;SDS011;697;51.114;6.542;2024-01-30T03:14:50;18.33;;;13.20;;
1404;SDS011;697;51.114;6.542;2024-01-30T03:17:17;18.10;;;14.10;;
1404;SDS011;697;51.114;6.542;2024-01-30T03:19:44;15.70;;;14.00;;
1404;SDS011;697;51.114;6.542;2024-01-30T03:22:11;15.33;;;13.07;;
1404;SDS011;697;51.114;6.542;2024-01-30T03:24:37;17.20;;;13.77;;
1404;SDS011;697;51.114;6.542;2024-01-30T03:27:04;18.40;;;12.47;;
1404;SDS011;697;51.114;6.542;2024-01-30T03:29:31;18.10;;;13.37;;
1404;SDS011;697;51.114;6.542;2024-01-30T03:31:59;18.63;;;13.67;;
1404;SDS011;697;51.114;6.542;2024-01-30T03:34:26;20.87;;;13.17;;
1404;SDS011;697;51.114;6.542;2024-01-30T03:36:52;15.77;;;12.93;;
1404;SDS011;697;51.114;6.542;2024-01-30T03:39:19;16.17;;;12.83;;
1404;SDS011;697;51.114;6.542;2024-01-30T03:41:46;15.07;;;11.90;;
1404;SDS011;697;51.114;6.542;2024-01-30T03:44:12;16.97;;;13.17;;
1404;SDS011;697;51.114;6.542;2024-01-30T03:46:39;15.00;;;12.77;;
1404;SDS011;697;51.114;6.542;2024-01-30T03:49:09;16.37;;;12.80;;
1404;SDS011;697;51.114;6.542;2024-01-30T03:51:36;15.80;;;12.20;;
1404;SDS011;697;51.114;6.542;2024-01-30T03:54:02;16.20;;;13.10;;
1404;SDS011;697;51.114;6.542;2024-01-30T03:56:29;20.93;;;12.97;;
1404;SDS011;697;51.114;6.542;2024-01-30T03:58:56;16.53;;;12.90;;
1404;SDS011;697;51.114;6.542;2024-01-30T04:01:23;18.53;;;14.07;;
1404;SDS011;697;51.114;6.542;2024-01-30T04:03:50;16.63;;;13.13;;
1404;SDS011;697;51.114;6.542;2024-01-30T04:06:18;15.97;;;12.87;;
1404;SDS011;697;51.114;6.542;2024-01-30T04:08:44;23.90;;;14.40;;
1404;SDS011;697;51.114;6.542;2024-01-30T04:11:11;19.03;;;13.73;;
1404;SDS011;697;51.114;6.542;2024-01-30T04:13:38;17.90;;;13.30;;
1404;SDS011;697;51.114;6.542;2024-01-30T04:16:05;15.87;;;12.37;;
1404;SDS011;697;51.114;6.542;2024-01-30T04:18:32;21.67;;;16.50;;
1404;SDS011;697;51.114;6.542;2024-01-30T04:20:59;18.87;;;13.67;;
1404;SDS011;697;51.114;6.542;2024-01-30T04:23:27;20.30;;;13.57;;
1404;SDS011;697;51.114;6.542;2024-01-30T04:25:54;15.63;;;12.50;;
1404;SDS011;697;51.114;6.542;2024-01-30T04:28:20;19.67;;;14.83;;
1404;SDS011;697;51.114;6.542;2024-01-30T04:30:47;21.20;;;14.20;;
1404;SDS011;697;51.114;6.542;2024-01-30T04:33:14;16.33;;;13.50;;
1404;SDS011;697;51.114;6.542;2024-01-30T04:35:42;17.47;;;14.20;;
1404;SDS011;697;51.114;6.542;2024-01-30T04:38:08;16.80;;;13.77;;
1404;SDS011;697;51.114;6.542;2024-01-30T04:40:37;16.63;;;12.53;;
1404;SDS011;697;51.114;6.542;2024-01-30T04:43:03;18.37;;;13.27;;
1404;SDS011;697;51.114;6.542;2024-01-30T04:45:30;21.07;;;13.47;;
1404;SDS011;697;51.114;6.542;2024-01-30T04:47:56;20.53;;;14.90;;
1404;SDS011;697;51.114;6.542;2024-01-30T04:50:23;17.63;;;13.63;;
1404;SDS011;697;51.114;6.542;2024-01-30T04:52:51;18.87;;;13.80;;
1404;SDS011;697;51.114;6.542;2024-01-30T04:55:18;17.77;;;13.50;;
1404;SDS011;697;51.114;6.542;2024-01-30T04:57:46;17.63;;;12.60;;
1404;SDS011;697;51.114;6.542;2024-01-30T05:00:13;17.40;;;13.60;;
1404;SDS011;697;51.114;6.542;2024-01-30T05:02:40;17.50;;;12.50;;
1404;SDS011;697;51.114;6.542;2024-01-30T05:05:08;15.20;;;11.40;;
1404;SDS011;697;51.114;6.542;2024-01-30T05:07:36;16.20;;;11.33;;
1404;SDS011;697;51.114;6.542;2024-01-30T05:10:03;14.20;;;11.00;;
1404;SDS011;697;51.114;6.542;2024-01-30T05:12:30;10.67;;;9.57;;
1404;SDS011;697;51.114;6.542;2024-01-30T05:14:58;14.93;;;9.90;;
1404;SDS011;697;51.114;6.542;2024-01-30T05:17:24;13.50;;;10.73;;
1404;SDS011;697;51.114;6.542;2024-01-30T05:19:51;14.73;;;10.33;;
1404;SDS011;697;51.114;6.542;2024-01-30T05:22:18;10.47;;;9.27;;
1404;SDS011;697;51.114;6.542;2024-01-30T05:24:45;13.40;;;9.97;;
1404;SDS011;697;51.114;6.542;2024-01-30T05:27:11;10.80;;;9.17;;
1404;SDS011;697;51.114;6.542;2024-01-30T05:29:39;14.00;;;8.80;;
1404;SDS011;697;51.114;6.542;2024-01-30T05:32:07;13.33;;;9.60;;
1404;SDS011;697;51.114;6.542;2024-01-30T05:34:35;14.57;;;11.13;;
1404;SDS011;697;51.114;6.542;2024-01-30T05:37:02;13.10;;;10.50;;
1404;SDS011;697;51.114;6.542;2024-01-30T05:39:29;11.63;;;9.50;;
1404;SDS011;697;51.114;6.542;2024-01-30T05:41:57;16.60;;;12.50;;
1404;SDS011;697;51.114;6.542;2024-01-30T05:44:24;17.67;;;12.53;;
1404;SDS011;697;51.114;6.542;2024-01-30T05:46:51;12.80;;;10.57;;
1404;SDS011;697;51.114;6.542;2024-01-30T05:49:19;12.70;;;11.40;;
1404;SDS011;697;51.114;6.542;2024-01-30T05:51:46;16.53;;;11.77;;
1404;SDS011;697;51.114;6.542;2024-01-30T05:54:13;12.33;;;11.03;;
1404;SDS011;697;51.114;6.542;2024-01-30T05:56:40;16.10;;;11.60;;
1404;SDS011;697;51.114;6.542;2024-01-30T05:59:07;14.87;;;12.17;;
1404;SDS011;697;51.114;6.542;2024-01-30T06:01:33;16.23;;;12.60;;
1404;SDS011;697;51.114;6.542;2024-01-30T06:04:00;16.00;;;12.80;;
1404;SDS011;697;51.114;6.542;2024-01-30T06:06:28;16.10;;;12.23;;
1404;SDS011;697;51.114;6.542;2024-01-30T06:08:55;15.13;;;12.80;;
1404;SDS011;697;51.114;6.542;2024-01-30T06:11:22;16.07;;;12.17;;
1404;SDS011;697;51.114;6.542;2024-01-30T06:13:48;18.03;;;12.50;;
1404;SDS011;697;51.114;6.542;2024-01-30T06:16:15;16.30;;;12.60;;
1404;SDS011;697;51.114;6.542;2024-01-30T06:18:42;15.70;;;13.10;;
1404;SDS011;697;51.114;6.542;2024-01-30T06:21:08;14.20;;;11.40;;
1404;SDS011;697;51.114;6.542;2024-01-30T06:23:36;23.20;;;12.77;;
1404;SDS011;697;51.114;6.542;2024-01-30T06:26:03;15.37;;;12.00;;
1404;SDS011;697;51.114;6.542;2024-01-30T06:28:30;19.00;;;13.33;;
1404;SDS011;697;51.114;6.542;2024-01-30T06:30:57;17.07;;;11.30;;
1404;SDS011;697;51.114;6.542;2024-01-30T06:33:24;21.70;;;13.83;;
1404;SDS011;697;51.114;6.542;2024-01-30T06:35:50;15.37;;;12.80;;
1404;SDS011;697;51.114;6.542;2024-01-30T06:38:17;13.90;;;11.90;;
1404;SDS011;697;51.114;6.542;2024-01-30T06:40:45;15.50;;;12.57;;
1404;SDS011;697;51.114;6.542;2024-01-30T06:43:12;16.20;;;11.90;;
1404;SDS011;697;51.114;6.542;2024-01-30T06:45:38;15.30;;;11.37;;
1404;SDS011;697;51.114;6.542;2024-01-30T06:48:04;15.47;;;13.13;;
1404;SDS011;697;51.114;6.542;2024-01-30T06:50:32;17.03;;;13.60;;
1404;SDS011;697;51.114;6.542;2024-01-30T06:52:58;17.13;;;13.10;;
1404;SDS011;697;51.114;6.542;2024-01-30T06:55:25;16.77;;;13.77;;
1404;SDS011;697;51.114;6.542;2024-01-30T06:57:53;16.93;;;13.30;;
1404;SDS011;697;51.114;6.542;2024-01-30T07:00:20;19.90;;;15.47;;
1404;SDS011;697;51.114;6.542;2024-01-30T07:02:48;16.00;;;12.60;;
1404;SDS011;697;51.114;6.542;2024-01-30T07:05:15;17.30;;;13.70;;
1404;SDS011;697;51.114;6.542;2024-01-30T07:07:42;17.30;;;13.27;;
1404;SDS011;697;51.114;6.542;2024-01-30T07:10:09;18.53;;;13.47;;
1404;SDS011;697;51.114;6.542;2024-01-30T07:12:35;21.40;;;15.07;;
1404;SDS011;697;51.114;6.542;2024-01-30T07:15:04;15.80;;;13.13;;
1404;SDS011;697;51.114;6.542;2024-01-30T07:17:33;17.27;;;13.80;;
1404;SDS011;697;51.114;6.542;2024-01-30T07:19:59;15.30;;;12.20;;
1404;SDS011;697;51.114;6.542;2024-01-30T07:22:28;17.80;;;12.47;;
1404;SDS011;697;51.114;6.542;2024-01-30T07:24:55;13.17;;;10.87;;
1404;SDS011;697;51.114;6.542;2024-01-30T07:27:21;17.03;;;12.70;;
1404;SDS011;697;51.114;6.542;2024-01-30T07:29:48;15.07;;;12.37;;
1404;SDS011;697;51.114;6.542;2024-01-30T07:32:16;14.63;;;11.40;;
1404;SDS011;697;51.114;6.542;2024-01-30T07:34:43;14.87;;;11.30;;
1404;SDS011;697;51.114;6.542;2024-01-30T07:37:10;15.93;;;11.80;;
1404;SDS011;697;51.114;6.542;2024-01-30T07:39:40;14.17;;;10.83;;
1404;SDS011;697;51.114;6.542;2024-01-30T07:42:07;12.87;;;11.47;;
1404;SDS011;697;51.114;6.542;2024-01-30T07:44:33;13.20;;;11.37;;
1404;SDS011;697;51.114;6.542;2024-01-30T07:47:00;15.73;;;12.53;;
1404;SDS011;697;51.114;6.542;2024-01-30T07:49:29;13.10;;;10.40;;
1404;SDS011;697;51.114;6.542;2024-01-30T07:51:56;20.50;;;11.33;;
1404;SDS011;697;51.114;6.542;2024-01-30T07:54:22;16.33;;;12.40;;
1404;SDS011;697;51.114;6.542;2024-01-30T07:56:49;13.93;;;11.60;;
1404;SDS011;697;51.114;6.542;2024-01-30T07:59:16;18.30;;;11.90;;
1404;SDS011;697;51.114;6.542;2024-01-30T08:01:44;14.60;;;10.80;;
1404;SDS011;697;51.114;6.542;2024-01-30T08:04:11;11.93;;;10.30;;
1404;SDS011;697;51.114;6.542;2024-01-30T08:06:39;12.80;;;10.77;;
1404;SDS011;697;51.114;6.542;2024-01-30T08:09:05;13.73;;;10.87;;
1404;SDS011;697;51.114;6.542;2024-01-30T08:11:32;17.27;;;9.83;;
1404;SDS011;697;51.114;6.542;2024-01-30T08:13:59;13.90;;;11.17;;
1404;SDS011;697;51.114;6.542;2024-01-30T08:16:26;15.83;;;10.67;;
1404;SDS011;697;51.114;6.542;2024-01-30T08:18:52;15.10;;;12.13;;
1404;SDS011;697;51.114;6.542;2024-01-30T08:21:22;15.73;;;12.27;;
1404;SDS011;697;51.114;6.542;2024-01-30T08:23:50;13.63;;;12.17;;
1404;SDS011;697;51.114;6.542;2024-01-30T08:26:17;14.43;;;11.70;;
1404;SDS011;697;51.114;6.542;2024-01-30T08:28:44;20.23;;;13.00;;
1404;SDS011;697;51.114;6.542;2024-01-30T08:31:10;15.20;;;12.20;;
1404;SDS011;697;51.114;6.542;2024-01-30T08:33:37;20.10;;;13.10;;
1404;SDS011;697;51.114;6.542;2024-01-30T08:36:04;22.80;;;14.13;;
1404;SDS011;697;51.114;6.542;2024-01-30T08:38:31;16.60;;;12.40;;
1404;SDS011;697;51.114;6.542;2024-01-30T08:40:59;17.07;;;12.20;;
1404;SDS011;697;51.114;6.542;2024-01-30T08:43:26;15.83;;;12.23;;
1404;SDS011;697;51.114;6.542;2024-01-30T08:45:52;17.27;;;12.27;;
1404;SDS011;697;51.114;6.542;2024-01-30T08:48:19;17.47;;;12.67;;
1404;SDS011;697;51.114;6.542;2024-01-30T08:50:47;13.30;;;11.90;;
1404;SDS011;697;51.114;6.542;2024-01-30T08:53:14;14.07;;;12.63;;
1404;SDS011;697;51.114;6.542;2024-01-30T08:55:41;16.20;;;12.83;;
1404;SDS011;697;51.114;6.542;2024-01-30T08:58:09;14.43;;;11.07;;
1404;SDS011;697;51.114;6.542;2024-01-30T09:00:35;16.20;;;11.33;;
1404;SDS011;697;51.114;6.542;2024-01-30T09:03:02;16.87;;;12.80;;
1404;SDS011;697;51.114;6.542;2024-01-30T09:05:29;16.30;;;12.90;;
1404;SDS011;697;51.114;6.542;2024-01-30T09:07:56;17.17;;;12.50;;
1404;SDS011;697;51.114;6.542;2024-01-30T09:10:23;13.03;;;10.57;;
1404;SDS011;697;51.114;6.542;2024-01-30T09:12:50;20.27;;;13.10;;
1404;SDS011;697;51.114;6.542;2024-01-30T09:15:18;13.90;;;11.27;;
1404;SDS011;697;51.114;6.542;2024-01-30T09:17:45;14.80;;;12.13;;
1404;SDS011;697;51.114;6.542;2024-01-30T09:20:11;17.30;;;11.47;;
1404;SDS011;697;51.114;6.542;2024-01-30T09:22:38;15.30;;;11.60;;
1404;SDS011;697;51.114;6.542;2024-01-30T09:25:05;18.67;;;12.57;;
1404;SDS011;697;51.114;6.542;2024-01-30T09:27:32;14.27;;;11.30;;
1404;SDS011;697;51.114;6.542;2024-01-30T09:29:58;18.33;;;13.20;;
1404;SDS011;697;51.114;6.542;2024-01-30T09:32:26;19.80;;;14.13;;
1404;SDS011;697;51.114;6.542;2024-01-30T09:34:53;17.07;;;12.07;;
1404;SDS011;697;51.114;6.542;2024-01-30T09:37:20;18.20;;;12.60;;
1404;SDS011;697;51.114;6.542;2024-01-30T09:39:46;16.80;;;13.77;;
1404;SDS011;697;51.114;6.542;2024-01-30T09:42:18;19.90;;;14.00;;
1404;SDS011;697;51.114;6.542;2024-01-30T09:44:52;18.17;;;13.70;;
1404;SDS011;697;51.114;6.542;2024-01-30T09:47:19;18.40;;;14.80;;
1404;SDS011;697;51.114;6.542;2024-01-30T09:49:48;20.60;;;13.83;;
1404;SDS011;697;51.114;6.542;2024-01-30T09:52:15;17.80;;;14.73;;
1404;SDS011;697;51.114;6.542;2024-01-30T09:54:42;16.33;;;13.50;;
1404;SDS011;697;51.114;6.542;2024-01-30T09:57:11;18.87;;;13.60;;
1404;SDS011;697;51.114;6.542;2024-01-30T09:59:37;17.70;;;11.87;;
1404;SDS011;697;51.114;6.542;2024-01-30T10:02:04;16.97;;;11.90;;
1404;SDS011;697;51.114;6.542;2024-01-30T10:04:31;18.37;;;13.40;;
1404;SDS011;697;51.114;6.542;2024-01-30T10:07:01;13.60;;;11.63;;
1404;SDS011;697;51.114;6.542;2024-01-30T10:09:28;17.40;;;13.00;;
1404;SDS011;697;51.114;6.542;2024-01-30T10:11:58;21.07;;;13.97;;
1404;SDS011;697;51.114;6.542;2024-01-30T10:14:25;17.23;;;12.57;;
1404;SDS011;697;51.114;6.542;2024-01-30T10:16:51;29.23;;;13.37;;
1404;SDS011;697;51.114;6.542;2024-01-30T10:19:18;20.53;;;13.97;;
1404;SDS011;697;51.114;6.542;2024-01-30T10:21:45;16.83;;;12.70;;
1404;SDS011;697;51.114;6.542;2024-01-30T10:24:13;18.60;;;14.50;;
1404;SDS011;697;51.114;6.542;2024-01-30T10:26:40;22.37;;;13.47;;
1404;SDS011;697;51.114;6.542;2024-01-30T10:29:09;17.23;;;13.93;;
1404;SDS011;697;51.114;6.542;2024-01-30T10:31:36;17.60;;;12.60;;
1404;SDS011;697;51.114;6.542;2024-01-30T10:34:03;15.80;;;11.97;;
1404;SDS011;697;51.114;6.542;2024-01-30T10:36:29;19.00;;;12.37;;
1404;SDS011;697;51.114;6.542;2024-01-30T10:39:00;15.80;;;13.23;;
1404;SDS011;697;51.114;6.542;2024-01-30T10:41:28;14.37;;;11.20;;
1404;SDS011;697;51.114;6.542;2024-01-30T10:44:02;12.77;;;10.00;;
1404;SDS011;697;51.114;6.542;2024-01-30T10:46:34;12.03;;;9.23;;
1404;SDS011;697;51.114;6.542;2024-01-30T10:49:03;14.40;;;9.30;;
1404;SDS011;697;51.114;6.542;2024-01-30T10:51:31;12.60;;;7.90;;
1404;SDS011;697;51.114;6.542;2024-01-30T10:53:58;10.67;;;7.63;;
1404;SDS011;697;51.114;6.542;2024-01-30T10:56:26;9.10;;;7.83;;
1404;SDS011;697;51.114;6.542;2024-01-30T10:58:55;15.50;;;7.63;;
1404;SDS011;697;51.114;6.542;2024-01-30T11:01:22;10.83;;;7.10;;
1404;SDS011;697;51.114;6.542;2024-01-30T11:03:50;13.90;;;7.00;;
1404;SDS011;697;51.114;6.542;2024-01-30T11:06:17;10.43;;;7.30;;
1404;SDS011;697;51.114;6.542;2024-01-30T11:08:44;10.20;;;7.67;;
1404;SDS011;697;51.114;6.542;2024-01-30T11:11:11;11.70;;;6.50;;
1404;SDS011;697;51.114;6.542;2024-01-30T11:13:38;10.73;;;6.30;;
1404;SDS011;697;51.114;6.542;2024-01-30T11:16:07;12.40;;;7.00;;
1404;SDS011;697;51.114;6.542;2024-01-30T11:18:37;8.13;;;6.30;;
1404;SDS011;697;51.114;6.542;2024-01-30T11:21:04;11.57;;;6.53;;
1404;SDS011;697;51.114;6.542;2024-01-30T11:23:32;13.47;;;6.17;;
1404;SDS011;697;51.114;6.542;2024-01-30T11:26:00;10.63;;;6.07;;
1404;SDS011;697;51.114;6.542;2024-01-30T11:28:31;7.17;;;5.10;;
1404;SDS011;697;51.114;6.542;2024-01-30T11:31:02;10.17;;;5.67;;
1404;SDS011;697;51.114;6.542;2024-01-30T11:33:30;12.40;;;5.80;;
1404;SDS011;697;51.114;6.542;2024-01-30T11:35:58;13.27;;;5.90;;
1404;SDS011;697;51.114;6.542;2024-01-30T11:38:25;8.23;;;6.20;;
1404;SDS011;697;51.114;6.542;2024-01-30T11:40:53;10.07;;;6.07;;
1404;SDS011;697;51.114;6.542;2024-01-30T11:43:21;9.60;;;6.90;;
1404;SDS011;697;51.114;6.542;2024-01-30T11:45:47;13.90;;;6.30;;
1404;SDS011;697;51.114;6.542;2024-01-30T11:48:14;12.20;;;6.87;;
1404;SDS011;697;51.114;6.542;2024-01-30T11:50:42;11.00;;;6.53;;
1404;SDS011;697;51.114;6.542;2024-01-30T11:53:10;9.70;;;6.33;;
1404;SDS011;697;51.114;6.542;2024-01-30T11:55:37;8.53;;;5.97;;
1404;SDS011;697;51.114;6.542;2024-01-30T11:58:03;10.40;;;6.07;;
1404;SDS011;697;51.114;6.542;2024-01-30T12:00:30;12.67;;;7.07;;
1404;SDS011;697;51.114;6.542;2024-01-30T12:02:58;8.13;;;6.30;;
1404;SDS011;697;51.114;6.542;2024-01-30T12:05:25;9.83;;;7.43;;
1404;SDS011;697;51.114;6.542;2024-01-30T12:07:54;9.97;;;5.80;;
1404;SDS011;697;51.114;6.542;2024-01-30T12:10:23;10.73;;;7.03;;
1404;SDS011;697;51.114;6.542;2024-01-30T12:12:51;14.13;;;6.80;;
1404;SDS011;697;51.114;6.542;2024-01-30T12:15:21;7.80;;;5.77;;
1404;SDS011;697;51.114;6.542;2024-01-30T12:17:48;11.60;;;7.63;;
1404;SDS011;697;51.114;6.542;2024-01-30T12:20:17;12.13;;;8.23;;
1404;SDS011;697;51.114;6.542;2024-01-30T12:22:44;11.00;;;7.00;;
1404;SDS011;697;51.114;6.542;2024-01-30T12:25:13;12.03;;;7.30;;
1404;SDS011;697;51.114;6.542;2024-01-30T12:27:41;9.80;;;6.60;;
1404;SDS011;697;51.114;6.542;2024-01-30T12:30:10;14.10;;;7.00;;
1404;SDS011;697;51.114;6.542;2024-01-30T12:32:39;12.60;;;7.03;;
1404;SDS011;697;51.114;6.542;2024-01-30T12:35:07;11.47;;;7.40;;
1404;SDS011;697;51.114;6.542;2024-01-30T12:37:35;14.53;;;7.70;;
1404;SDS011;697;51.114;6.542;2024-01-30T12:40:02;12.87;;;6.90;;
1404;SDS011;697;51.114;6.542;2024-01-30T12:42:32;10.83;;;7.70;;
1404;SDS011;697;51.114;6.542;2024-01-30T12:44:59;9.73;;;7.27;;
1404;SDS011;697;51.114;6.542;2024-01-30T12:47:26;10.67;;;6.63;;
1404;SDS011;697;51.114;6.542;2024-01-30T12:49:52;8.30;;;6.77;;
1404;SDS011;697;51.114;6.542;2024-01-30T12:52:20;8.37;;;6.90;;
1404;SDS011;697;51.114;6.542;2024-01-30T12:54:48;12.03;;;6.90;;
1404;SDS011;697;51.114;6.542;2024-01-30T12:57:15;14.80;;;7.10;;
1404;SDS011;697;51.114;6.542;2024-01-30T12:59:44;14.10;;;7.20;;
1404;SDS011;697;51.114;6.542;2024-01-30T13:02:11;14.30;;;7.40;;
1404;SDS011;697;51.114;6.542;2024-01-30T13:04:39;13.57;;;8.23;;
1404;SDS011;697;51.114;6.542;2024-01-30T13:07:06;11.70;;;7.97;;
1404;SDS011;697;51.114;6.542;2024-01-30T13:09:32;11.80;;;6.70;;
1404;SDS011;697;51.114;6.542;2024-01-30T13:11:59;10.97;;;8.30;;
1404;SDS011;697;51.114;6.542;2024-01-30T13:14:26;12.27;;;8.83;;
1404;SDS011;697;51.114;6.542;2024-01-30T13:16:54;13.93;;;8.90;;
1404;SDS011;697;51.114;6.542;2024-01-30T13:19:21;13.90;;;7.80;;
1404;SDS011;697;51.114;6.542;2024-01-30T13:21:47;11.57;;;8.60;;
1404;SDS011;697;51.114;6.542;2024-01-30T13:24:14;13.43;;;7.87;;
1404;SDS011;697;51.114;6.542;2024-01-30T13:26:42;14.10;;;8.37;;
1404;SDS011;697;51.114;6.542;2024-01-30T13:29:08;13.33;;;8.13;;
1404;SDS011;697;51.114;6.542;2024-01-30T13:31:35;13.60;;;8.57;;
1404;SDS011;697;51.114;6.542;2024-01-30T13:34:04;18.57;;;9.20;;
1404;SDS011;697;51.114;6.542;2024-01-30T13:36:31;11.20;;;7.77;;
1404;SDS011;697;51.114;6.542;2024-01-30T13:38:58;13.03;;;7.90;;
1404;SDS011;697;51.114;6.542;2024-01-30T13:41:24;13.03;;;8.80;;
1404;SDS011;697;51.114;6.542;2024-01-30T13:43:51;19.03;;;9.00;;
1404;SDS011;697;51.114;6.542;2024-01-30T13:46:18;10.53;;;7.20;;
1404;SDS011;697;51.114;6.542;2024-01-30T13:48:45;9.33;;;8.43;;
1404;SDS011;697;51.114;6.542;2024-01-30T13:51:13;8.60;;;7.23;;
1404;SDS011;697;51.114;6.542;2024-01-30T13:53:42;12.77;;;7.67;;
1404;SDS011;697;51.114;6.542;2024-01-30T13:56:08;10.43;;;7.80;;
1404;SDS011;697;51.114;6.542;2024-01-30T13:58:35;10.80;;;7.43;;
1404;SDS011;697;51.114;6.542;2024-01-30T14:01:02;10.33;;;7.83;;
1404;SDS011;697;51.114;6.542;2024-01-30T14:03:29;9.40;;;7.93;;
1404;SDS011;697;51.114;6.542;2024-01-30T14:05:57;10.10;;;8.17;;
1404;SDS011;697;51.114;6.542;2024-01-30T14:08:25;13.80;;;9.20;;
1404;SDS011;697;51.114;6.542;2024-01-30T14:10:53;9.80;;;7.33;;
1404;SDS011;697;51.114;6.542;2024-01-30T14:13:20;10.40;;;7.90;;
1404;SDS011;697;51.114;6.542;2024-01-30T14:15:47;9.43;;;8.10;;
1404;SDS011;697;51.114;6.542;2024-01-30T14:18:14;13.00;;;8.67;;
1404;SDS011;697;51.114;6.542;2024-01-30T14:20:41;14.50;;;8.70;;
1404;SDS011;697;51.114;6.542;2024-01-30T14:23:08;11.90;;;9.00;;
1404;SDS011;697;51.114;6.542;2024-01-30T14:25:36;12.30;;;8.30;;
1404;SDS011;697;51.114;6.542;2024-01-30T14:28:03;14.43;;;8.80;;
1404;SDS011;697;51.114;6.542;2024-01-30T14:30:30;14.43;;;8.63;;
1404;SDS011;697;51.114;6.542;2024-01-30T14:32:56;17.03;;;9.57;;
1404;SDS011;697;51.114;6.542;2024-01-30T14:35:23;10.40;;;7.93;;
1404;SDS011;697;51.114;6.542;2024-01-30T14:37:50;12.00;;;7.60;;
1404;SDS011;697;51.114;6.542;2024-01-30T14:40:17;10.03;;;7.20;;
1404;SDS011;697;51.114;6.542;2024-01-30T14:42:45;15.50;;;7.87;;
1404;SDS011;697;51.114;6.542;2024-01-30T14:45:12;11.97;;;7.87;;
1404;SDS011;697;51.114;6.542;2024-01-30T14:47:38;13.53;;;8.53;;
1404;SDS011;697;51.114;6.542;2024-01-30T14:50:06;12.10;;;7.63;;
1404;SDS011;697;51.114;6.542;2024-01-30T14:52:32;14.17;;;8.23;;
1404;SDS011;697;51.114;6.542;2024-01-30T14:54:59;14.23;;;8.00;;
1404;SDS011;697;51.114;6.542;2024-01-30T14:57:26;8.50;;;7.57;;
1404;SDS011;697;51.114;6.542;2024-01-30T14:59:55;11.50;;;7.87;;
1404;SDS011;697;51.114;6.542;2024-01-30T15:02:22;11.10;;;7.73;;
1404;SDS011;697;51.114;6.542;2024-01-30T15:04:49;7.00;;;5.33;;
1404;SDS011;697;51.114;6.542;2024-01-30T15:07:15;10.60;;;5.80;;